createdAt,value
2023-04-08T00:00:54.690Z,55.47
2023-04-08T00:15:57.707Z,58.67
2023-04-08T00:31:00.584Z,57.07
2023-04-08T00:46:03.700Z,60.53
2023-04-08T01:01:17.537Z,57.60
2023-04-08T01:16:22.276Z,59.14
2023-04-08T01:31:26.262Z,59.45
2023-04-08T01:46:29.742Z,59.83
2023-04-08T02:01:34.752Z,59.62
2023-04-08T02:16:54.414Z,59.55
2023-04-08T02:31:58.823Z,58.71
2023-04-08T02:47:01.516Z,58.45
2023-04-08T03:02:04.547Z,58.39
2023-04-08T03:17:07.298Z,58.60
2023-04-08T03:32:09.905Z,60.30
2023-04-08T03:47:12.569Z,59.17
2023-04-08T04:02:15.478Z,58.86
2023-04-08T04:17:18.631Z,58.62
2023-04-08T04:32:21.376Z,58.71
2023-04-08T04:47:24.314Z,58.58
2023-04-08T05:02:27.119Z,59.11
2023-04-08T05:17:30.031Z,59.16
2023-04-08T05:32:32.624Z,60.20
2023-04-08T05:47:35.489Z,59.26
2023-04-08T06:02:38.888Z,58.25
2023-04-08T06:17:42.114Z,60.80
2023-04-08T06:32:47.369Z,59.59
2023-04-08T06:47:50.254Z,59.21
2023-04-08T07:02:53.135Z,60.34
2023-04-08T07:18:00.099Z,59.13
2023-04-08T07:33:02.896Z,60.08
2023-04-08T07:48:05.857Z,59.56
2023-04-08T08:03:08.921Z,59.97
2023-04-08T08:18:11.897Z,59.05
2023-04-08T08:33:14.747Z,59.44
2023-04-08T08:48:17.918Z,59.04
2023-04-08T09:03:24.739Z,59.08
2023-04-08T09:18:27.798Z,60.06
2023-04-08T09:33:32.115Z,58.97
2023-04-08T09:48:41.398Z,58.23
2023-04-08T10:03:50.002Z,58.85
2023-04-08T10:18:56.680Z,57.80
2023-04-08T10:34:22.957Z,58.43
2023-04-08T10:49:33.847Z,58.41
2023-04-08T11:04:42.745Z,58.45
2023-04-08T11:19:46.694Z,56.92
2023-04-08T11:34:50.088Z,54.56
2023-04-08T11:49:52.732Z,51.87
2023-04-08T12:04:55.611Z,50.50
2023-04-08T12:19:58.755Z,51.96
2023-04-08T12:35:01.382Z,52.08
2023-04-08T12:50:04.870Z,52.69
2023-04-08T13:05:07.840Z,53.48
2023-04-08T13:20:11.018Z,53.48
2023-04-08T13:35:13.645Z,54.22
2023-04-08T13:50:16.313Z,53.21
2023-04-08T14:05:19.213Z,53.50
2023-04-08T14:20:21.921Z,53.92
2023-04-08T14:35:24.568Z,53.34
2023-04-08T14:50:27.490Z,53.67
2023-04-08T15:05:30.069Z,53.48
2023-04-08T15:20:32.928Z,53.68
2023-04-08T15:35:38.505Z,54.18
2023-04-08T15:50:42.183Z,54.45
2023-04-08T16:05:45.750Z,55.13
2023-04-08T16:20:49.930Z,55.60
2023-04-08T16:35:52.724Z,55.83
2023-04-08T16:50:55.393Z,56.22
2023-04-08T17:06:09.353Z,56.63
2023-04-08T17:21:14.029Z,57.26
2023-04-08T17:36:17.873Z,58.12
2023-04-08T17:51:20.975Z,59.03
2023-04-08T18:06:23.698Z,59.78
2023-04-08T18:21:27.212Z,60.17
2023-04-08T18:36:30.035Z,60.36
2023-04-08T18:51:33.536Z,62.57
2023-04-08T19:06:37.764Z,57.30
2023-04-08T19:21:40.466Z,59.34
2023-04-08T19:36:43.038Z,61.70
2023-04-08T19:51:46.123Z,57.05
2023-04-08T20:06:48.693Z,59.59
2023-04-08T20:21:51.323Z,61.98
2023-04-08T20:36:53.938Z,59.70
2023-04-08T20:51:57.322Z,59.07
2023-04-08T21:06:59.956Z,61.12
2023-04-08T21:22:02.677Z,63.14
2023-04-08T21:37:05.796Z,61.54
2023-04-08T21:52:08.386Z,59.27
2023-04-08T22:07:10.981Z,62.03
2023-04-08T22:22:13.576Z,59.86
2023-04-08T22:37:16.238Z,59.30
2023-04-08T22:52:18.975Z,61.88
2023-04-08T23:07:22.023Z,57.10
2023-04-08T23:22:24.703Z,59.32
2023-04-08T23:37:28.022Z,56.72
2023-04-08T23:52:30.878Z,60.46
